sensor_id;sensor_type;location;lat;lon;timestamp;P1;durP1;ratioP1;P2;durP2;ratioP2
39050;SDS011;24805;55.852;37.644;2023-02-28T00:03:40;10.50;;;4.95;;
39050;SDS011;24805;55.852;37.644;2023-02-28T00:08:42;8.82;;;4.55;;
39050;SDS011;24805;55.852;37.644;2023-02-28T00:13:45;7.70;;;4.05;;
39050;SDS011;24805;55.852;37.644;2023-02-28T00:18:49;9.35;;;3.90;;
39050;SDS011;24805;55.852;37.644;2023-02-28T00:23:52;6.63;;;3.20;;
39050;SDS011;24805;55.852;37.644;2023-02-28T00:28:54;7.95;;;3.58;;
39050;SDS011;24805;55.852;37.644;2023-02-28T00:33:56;5.50;;;2.90;;
39050;SDS011;24805;55.852;37.644;2023-02-28T00:38:59;6.18;;;3.10;;
39050;SDS011;24805;55.852;37.644;2023-02-28T00:44:02;8.00;;;3.78;;
39050;SDS011;24805;55.852;37.644;2023-02-28T00:49:06;9.90;;;4.82;;
39050;SDS011;24805;55.852;37.644;2023-02-28T00:54:09;7.35;;;3.58;;
39050;SDS011;24805;55.852;37.644;2023-02-28T00:59:15;8.90;;;4.55;;
39050;SDS011;24805;55.852;37.644;2023-02-28T01:04:18;5.10;;;2.72;;
39050;SDS011;24805;55.852;37.644;2023-02-28T01:09:20;2.17;;;1.33;;
39050;SDS011;24805;55.852;37.644;2023-02-28T01:14:23;7.13;;;3.72;;
39050;SDS011;24805;55.852;37.644;2023-02-28T01:19:25;10.40;;;4.45;;
39050;SDS011;24805;55.852;37.644;2023-02-28T01:24:27;6.18;;;4.05;;
39050;SDS011;24805;55.852;37.644;2023-02-28T01:29:29;9.95;;;4.30;;
39050;SDS011;24805;55.852;37.644;2023-02-28T01:34:31;4.95;;;2.80;;
39050;SDS011;24805;55.852;37.644;2023-02-28T01:39:33;7.53;;;3.42;;
39050;SDS011;24805;55.852;37.644;2023-02-28T01:44:57;5.47;;;3.75;;
39050;SDS011;24805;55.852;37.644;2023-02-28T01:50:07;6.85;;;3.45;;
39050;SDS011;24805;55.852;37.644;2023-02-28T01:55:15;6.45;;;2.72;;
39050;SDS011;24805;55.852;37.644;2023-02-28T02:00:22;5.32;;;2.13;;
39050;SDS011;24805;55.852;37.644;2023-02-28T02:05:27;7.10;;;3.45;;
39050;SDS011;24805;55.852;37.644;2023-02-28T02:10:34;7.35;;;3.65;;
39050;SDS011;24805;55.852;37.644;2023-02-28T02:15:48;5.95;;;2.95;;
39050;SDS011;24805;55.852;37.644;2023-02-28T02:21:11;5.35;;;3.45;;
39050;SDS011;24805;55.852;37.644;2023-02-28T02:37:13;7.07;;;4.00;;
39050;SDS011;24805;55.852;37.644;2023-02-28T02:42:25;6.95;;;3.90;;
39050;SDS011;24805;55.852;37.644;2023-02-28T02:47:38;3.65;;;1.40;;
39050;SDS011;24805;55.852;37.644;2023-02-28T02:52:42;6.90;;;3.00;;
39050;SDS011;24805;55.852;37.644;2023-02-28T02:57:54;6.30;;;3.28;;
39050;SDS011;24805;55.852;37.644;2023-02-28T03:03:01;3.92;;;2.40;;
39050;SDS011;24805;55.852;37.644;2023-02-28T03:08:04;5.40;;;2.80;;
39050;SDS011;24805;55.852;37.644;2023-02-28T03:23:37;6.30;;;2.75;;
39050;SDS011;24805;55.852;37.644;2023-02-28T03:34:10;6.43;;;2.67;;
39050;SDS011;24805;55.852;37.644;2023-02-28T03:39:26;5.20;;;2.20;;
39050;SDS011;24805;55.852;37.644;2023-02-28T03:44:39;4.22;;;2.28;;
39050;SDS011;24805;55.852;37.644;2023-02-28T03:49:47;7.03;;;3.35;;
39050;SDS011;24805;55.852;37.644;2023-02-28T03:54:56;7.90;;;3.78;;
39050;SDS011;24805;55.852;37.644;2023-02-28T04:00:08;7.07;;;3.42;;
39050;SDS011;24805;55.852;37.644;2023-02-28T04:05:15;2.75;;;1.75;;
39050;SDS011;24805;55.852;37.644;2023-02-28T04:10:18;5.05;;;2.63;;
39050;SDS011;24805;55.852;37.644;2023-02-28T04:15:20;3.67;;;1.75;;
39050;SDS011;24805;55.852;37.644;2023-02-28T04:20:24;6.35;;;2.90;;
39050;SDS011;24805;55.852;37.644;2023-02-28T04:25:26;4.68;;;2.42;;
39050;SDS011;24805;55.852;37.644;2023-02-28T04:30:28;4.25;;;2.28;;
39050;SDS011;24805;55.852;37.644;2023-02-28T04:35:31;6.93;;;3.25;;
39050;SDS011;24805;55.852;37.644;2023-02-28T04:40:33;6.03;;;3.38;;
39050;SDS011;24805;55.852;37.644;2023-02-28T04:45:37;4.20;;;1.80;;
39050;SDS011;24805;55.852;37.644;2023-02-28T04:50:39;4.38;;;2.17;;
39050;SDS011;24805;55.852;37.644;2023-02-28T04:55:41;4.45;;;2.58;;
39050;SDS011;24805;55.852;37.644;2023-02-28T05:00:43;4.70;;;1.50;;
39050;SDS011;24805;55.852;37.644;2023-02-28T05:05:45;6.70;;;2.88;;
39050;SDS011;24805;55.852;37.644;2023-02-28T05:10:47;3.90;;;2.45;;
39050;SDS011;24805;55.852;37.644;2023-02-28T05:15:49;4.70;;;2.45;;
39050;SDS011;24805;55.852;37.644;2023-02-28T05:20:51;3.00;;;1.58;;
39050;SDS011;24805;55.852;37.644;2023-02-28T05:25:53;3.80;;;1.90;;
39050;SDS011;24805;55.852;37.644;2023-02-28T05:30:55;5.00;;;2.55;;
39050;SDS011;24805;55.852;37.644;2023-02-28T05:35:57;4.65;;;1.48;;
39050;SDS011;24805;55.852;37.644;2023-02-28T05:40:59;4.60;;;2.20;;
39050;SDS011;24805;55.852;37.644;2023-02-28T05:46:05;4.88;;;2.13;;
39050;SDS011;24805;55.852;37.644;2023-02-28T05:51:09;4.20;;;2.22;;
39050;SDS011;24805;55.852;37.644;2023-02-28T05:56:11;4.90;;;2.10;;
39050;SDS011;24805;55.852;37.644;2023-02-28T06:01:33;3.42;;;2.08;;
39050;SDS011;24805;55.852;37.644;2023-02-28T06:06:37;3.63;;;1.77;;
39050;SDS011;24805;55.852;37.644;2023-02-28T06:11:39;3.10;;;1.85;;
39050;SDS011;24805;55.852;37.644;2023-02-28T06:16:42;3.83;;;1.85;;
39050;SDS011;24805;55.852;37.644;2023-02-28T06:21:44;3.70;;;1.50;;
39050;SDS011;24805;55.852;37.644;2023-02-28T06:26:46;3.17;;;1.60;;
39050;SDS011;24805;55.852;37.644;2023-02-28T06:31:48;4.20;;;1.85;;
39050;SDS011;24805;55.852;37.644;2023-02-28T06:36:51;5.00;;;2.20;;
39050;SDS011;24805;55.852;37.644;2023-02-28T06:41:53;3.72;;;2.30;;
39050;SDS011;24805;55.852;37.644;2023-02-28T06:46:57;3.97;;;1.77;;
39050;SDS011;24805;55.852;37.644;2023-02-28T06:51:59;4.20;;;1.90;;
39050;SDS011;24805;55.852;37.644;2023-02-28T06:57:01;2.33;;;1.48;;
39050;SDS011;24805;55.852;37.644;2023-02-28T07:02:03;3.08;;;1.42;;
39050;SDS011;24805;55.852;37.644;2023-02-28T07:07:08;1.98;;;1.02;;
39050;SDS011;24805;55.852;37.644;2023-02-28T07:12:10;3.75;;;2.25;;
39050;SDS011;24805;55.852;37.644;2023-02-28T07:17:12;5.60;;;1.98;;
39050;SDS011;24805;55.852;37.644;2023-02-28T07:22:14;3.08;;;1.80;;
39050;SDS011;24805;55.852;37.644;2023-02-28T07:27:16;5.03;;;1.77;;
39050;SDS011;24805;55.852;37.644;2023-02-28T07:32:25;3.35;;;1.38;;
39050;SDS011;24805;55.852;37.644;2023-02-28T07:37:27;2.97;;;1.60;;
39050;SDS011;24805;55.852;37.644;2023-02-28T07:42:29;2.78;;;1.75;;
39050;SDS011;24805;55.852;37.644;2023-02-28T07:47:31;2.83;;;1.45;;
39050;SDS011;24805;55.852;37.644;2023-02-28T07:52:34;3.25;;;2.13;;
39050;SDS011;24805;55.852;37.644;2023-02-28T07:57:37;4.72;;;1.70;;
39050;SDS011;24805;55.852;37.644;2023-02-28T08:02:39;3.58;;;1.80;;
39050;SDS011;24805;55.852;37.644;2023-02-28T08:07:42;5.57;;;2.30;;
39050;SDS011;24805;55.852;37.644;2023-02-28T08:12:44;5.35;;;2.10;;
39050;SDS011;24805;55.852;37.644;2023-02-28T08:17:46;7.40;;;2.30;;
39050;SDS011;24805;55.852;37.644;2023-02-28T08:22:48;3.60;;;1.35;;
39050;SDS011;24805;55.852;37.644;2023-02-28T08:27:51;5.93;;;1.90;;
39050;SDS011;24805;55.852;37.644;2023-02-28T08:32:53;5.65;;;1.83;;
39050;SDS011;24805;55.852;37.644;2023-02-28T08:37:56;4.43;;;1.65;;
39050;SDS011;24805;55.852;37.644;2023-02-28T08:42:59;4.22;;;1.50;;
39050;SDS011;24805;55.852;37.644;2023-02-28T08:48:02;4.80;;;2.53;;
39050;SDS011;24805;55.852;37.644;2023-02-28T08:53:04;4.10;;;2.03;;
39050;SDS011;24805;55.852;37.644;2023-02-28T08:58:06;9.38;;;2.15;;
39050;SDS011;24805;55.852;37.644;2023-02-28T09:03:08;7.72;;;3.13;;
39050;SDS011;24805;55.852;37.644;2023-02-28T09:08:10;2.85;;;1.00;;
39050;SDS011;24805;55.852;37.644;2023-02-28T09:13:12;6.25;;;2.25;;
39050;SDS011;24805;55.852;37.644;2023-02-28T09:18:14;3.20;;;1.67;;
39050;SDS011;24805;55.852;37.644;2023-02-28T09:23:17;3.55;;;1.98;;
39050;SDS011;24805;55.852;37.644;2023-02-28T09:28:19;5.28;;;1.85;;
39050;SDS011;24805;55.852;37.644;2023-02-28T09:33:22;3.92;;;2.05;;
39050;SDS011;24805;55.852;37.644;2023-02-28T09:38:24;4.00;;;1.73;;
39050;SDS011;24805;55.852;37.644;2023-02-28T09:43:33;4.10;;;1.95;;
39050;SDS011;24805;55.852;37.644;2023-02-28T09:48:39;4.50;;;1.92;;
39050;SDS011;24805;55.852;37.644;2023-02-28T09:53:46;3.67;;;1.77;;
39050;SDS011;24805;55.852;37.644;2023-02-28T09:58:55;2.72;;;1.48;;
39050;SDS011;24805;55.852;37.644;2023-02-28T10:09:27;3.63;;;1.45;;
39050;SDS011;24805;55.852;37.644;2023-02-28T10:14:35;4.70;;;2.10;;
39050;SDS011;24805;55.852;37.644;2023-02-28T10:25:20;3.88;;;1.85;;
39050;SDS011;24805;55.852;37.644;2023-02-28T10:30:25;2.00;;;0.73;;
39050;SDS011;24805;55.852;37.644;2023-02-28T10:35:27;3.17;;;1.50;;
39050;SDS011;24805;55.852;37.644;2023-02-28T10:40:31;4.45;;;1.77;;
39050;SDS011;24805;55.852;37.644;2023-02-28T10:45:37;5.35;;;2.42;;
39050;SDS011;24805;55.852;37.644;2023-02-28T10:51:00;4.80;;;1.85;;
39050;SDS011;24805;55.852;37.644;2023-02-28T11:01:08;4.35;;;2.17;;
39050;SDS011;24805;55.852;37.644;2023-02-28T11:06:26;3.13;;;1.30;;
39050;SDS011;24805;55.852;37.644;2023-02-28T11:11:41;3.85;;;1.75;;
39050;SDS011;24805;55.852;37.644;2023-02-28T11:16:45;3.78;;;1.75;;
39050;SDS011;24805;55.852;37.644;2023-02-28T11:21:49;3.35;;;1.88;;
39050;SDS011;24805;55.852;37.644;2023-02-28T11:26:56;4.85;;;2.42;;
39050;SDS011;24805;55.852;37.644;2023-02-28T11:37:05;3.22;;;1.60;;
39050;SDS011;24805;55.852;37.644;2023-02-28T11:47:44;4.75;;;2.63;;
39050;SDS011;24805;55.852;37.644;2023-02-28T11:53:02;6.68;;;3.22;;
39050;SDS011;24805;55.852;37.644;2023-02-28T11:58:26;4.65;;;2.58;;
39050;SDS011;24805;55.852;37.644;2023-02-28T12:03:52;5.78;;;2.33;;
39050;SDS011;24805;55.852;37.644;2023-02-28T12:14:39;3.83;;;1.77;;
39050;SDS011;24805;55.852;37.644;2023-02-28T12:25:24;4.82;;;2.63;;
39050;SDS011;24805;55.852;37.644;2023-02-28T12:31:11;4.70;;;1.77;;
39050;SDS011;24805;55.852;37.644;2023-02-28T12:36:20;5.00;;;2.00;;
39050;SDS011;24805;55.852;37.644;2023-02-28T12:41:39;3.15;;;1.80;;
39050;SDS011;24805;55.852;37.644;2023-02-28T12:46:48;6.47;;;2.47;;
39050;SDS011;24805;55.852;37.644;2023-02-28T12:51:53;4.60;;;1.85;;
39050;SDS011;24805;55.852;37.644;2023-02-28T12:57:02;3.25;;;1.45;;
39050;SDS011;24805;55.852;37.644;2023-02-28T13:13:13;6.53;;;2.85;;
39050;SDS011;24805;55.852;37.644;2023-02-28T13:18:34;2.40;;;1.30;;
39050;SDS011;24805;55.852;37.644;2023-02-28T13:23:40;4.95;;;3.17;;
39050;SDS011;24805;55.852;37.644;2023-02-28T13:29:32;3.50;;;1.85;;
39050;SDS011;24805;55.852;37.644;2023-02-28T13:34:19;3.47;;;2.35;;
39050;SDS011;24805;55.852;37.644;2023-02-28T13:45:19;4.22;;;1.73;;
39050;SDS011;24805;55.852;37.644;2023-02-28T14:11:33;3.70;;;1.83;;
39050;SDS011;24805;55.852;37.644;2023-02-28T14:16:39;5.33;;;2.20;;
39050;SDS011;24805;55.852;37.644;2023-02-28T14:38:14;4.78;;;2.20;;
39050;SDS011;24805;55.852;37.644;2023-02-28T14:43:23;5.72;;;2.90;;
39050;SDS011;24805;55.852;37.644;2023-02-28T14:48:27;3.72;;;1.92;;
39050;SDS011;24805;55.852;37.644;2023-02-28T14:53:34;3.65;;;1.60;;
39050;SDS011;24805;55.852;37.644;2023-02-28T14:58:37;5.20;;;2.50;;
39050;SDS011;24805;55.852;37.644;2023-02-28T15:03:39;3.85;;;2.33;;
39050;SDS011;24805;55.852;37.644;2023-02-28T15:08:44;3.50;;;1.63;;
39050;SDS011;24805;55.852;37.644;2023-02-28T15:13:47;2.42;;;1.27;;
39050;SDS011;24805;55.852;37.644;2023-02-28T15:19:35;4.13;;;2.45;;
39050;SDS011;24805;55.852;37.644;2023-02-28T15:29:29;2.65;;;1.08;;
39050;SDS011;24805;55.852;37.644;2023-02-28T15:34:42;2.25;;;1.13;;
39050;SDS011;24805;55.852;37.644;2023-02-28T15:39:45;3.83;;;1.88;;
39050;SDS011;24805;55.852;37.644;2023-02-28T15:44:49;2.65;;;1.25;;
39050;SDS011;24805;55.852;37.644;2023-02-28T15:49:52;2.80;;;1.77;;
39050;SDS011;24805;55.852;37.644;2023-02-28T15:54:57;2.53;;;1.45;;
39050;SDS011;24805;55.852;37.644;2023-02-28T16:00:00;2.75;;;1.35;;
39050;SDS011;24805;55.852;37.644;2023-02-28T16:05:17;4.45;;;1.55;;
39050;SDS011;24805;55.852;37.644;2023-02-28T16:10:35;2.25;;;1.23;;
39050;SDS011;24805;55.852;37.644;2023-02-28T16:15:37;4.05;;;1.95;;
39050;SDS011;24805;55.852;37.644;2023-02-28T16:20:43;3.05;;;1.80;;
39050;SDS011;24805;55.852;37.644;2023-02-28T16:25:46;3.65;;;1.83;;
39050;SDS011;24805;55.852;37.644;2023-02-28T16:30:50;3.28;;;1.67;;
39050;SDS011;24805;55.852;37.644;2023-02-28T16:35:53;4.43;;;1.90;;
39050;SDS011;24805;55.852;37.644;2023-02-28T16:40:55;3.05;;;2.10;;
39050;SDS011;24805;55.852;37.644;2023-02-28T16:46:01;4.28;;;2.42;;
39050;SDS011;24805;55.852;37.644;2023-02-28T16:51:05;4.25;;;2.05;;
39050;SDS011;24805;55.852;37.644;2023-02-28T16:56:30;4.82;;;2.25;;
39050;SDS011;24805;55.852;37.644;2023-02-28T17:01:31;2.28;;;1.55;;
39050;SDS011;24805;55.852;37.644;2023-02-28T17:06:34;3.55;;;1.33;;
39050;SDS011;24805;55.852;37.644;2023-02-28T17:11:36;2.70;;;1.38;;
39050;SDS011;24805;55.852;37.644;2023-02-28T17:16:39;2.58;;;1.42;;
39050;SDS011;24805;55.852;37.644;2023-02-28T17:21:42;4.40;;;2.28;;
39050;SDS011;24805;55.852;37.644;2023-02-28T17:26:44;2.15;;;0.75;;
39050;SDS011;24805;55.852;37.644;2023-02-28T17:31:47;2.45;;;0.50;;
39050;SDS011;24805;55.852;37.644;2023-02-28T17:36:50;3.08;;;0.57;;
39050;SDS011;24805;55.852;37.644;2023-02-28T17:41:54;3.08;;;0.60;;
39050;SDS011;24805;55.852;37.644;2023-02-28T17:46:56;2.05;;;0.40;;
39050;SDS011;24805;55.852;37.644;2023-02-28T17:51:59;1.10;;;0.30;;
39050;SDS011;24805;55.852;37.644;2023-02-28T17:57:01;1.30;;;0.30;;
39050;SDS011;24805;55.852;37.644;2023-02-28T18:02:03;2.50;;;0.25;;
39050;SDS011;24805;55.852;37.644;2023-02-28T18:07:07;0.63;;;0.15;;
39050;SDS011;24805;55.852;37.644;2023-02-28T18:12:12;1.63;;;0.30;;
39050;SDS011;24805;55.852;37.644;2023-02-28T18:17:14;3.00;;;0.47;;
39050;SDS011;24805;55.852;37.644;2023-02-28T18:22:17;1.52;;;0.30;;
39050;SDS011;24805;55.852;37.644;2023-02-28T18:27:19;1.33;;;0.20;;
39050;SDS011;24805;55.852;37.644;2023-02-28T18:32:21;2.78;;;0.40;;
39050;SDS011;24805;55.852;37.644;2023-02-28T18:37:23;2.20;;;0.60;;
39050;SDS011;24805;55.852;37.644;2023-02-28T18:42:26;4.57;;;0.77;;
39050;SDS011;24805;55.852;37.644;2023-02-28T18:47:28;2.22;;;0.30;;
39050;SDS011;24805;55.852;37.644;2023-02-28T18:52:30;2.47;;;0.55;;
39050;SDS011;24805;55.852;37.644;2023-02-28T18:57:32;1.90;;;0.40;;
39050;SDS011;24805;55.852;37.644;2023-02-28T19:02:35;4.93;;;0.63;;
39050;SDS011;24805;55.852;37.644;2023-02-28T19:07:37;1.25;;;0.20;;
39050;SDS011;24805;55.852;37.644;2023-02-28T19:12:39;1.50;;;0.30;;
39050;SDS011;24805;55.852;37.644;2023-02-28T19:17:43;1.67;;;0.30;;
39050;SDS011;24805;55.852;37.644;2023-02-28T19:22:46;1.40;;;0.30;;
39050;SDS011;24805;55.852;37.644;2023-02-28T19:27:52;2.05;;;0.50;;
39050;SDS011;24805;55.852;37.644;2023-02-28T19:32:54;1.00;;;0.10;;
39050;SDS011;24805;55.852;37.644;2023-02-28T19:37:56;2.05;;;0.20;;
39050;SDS011;24805;55.852;37.644;2023-02-28T19:43:00;1.35;;;0.35;;
39050;SDS011;24805;55.852;37.644;2023-02-28T19:48:05;1.58;;;0.30;;
39050;SDS011;24805;55.852;37.644;2023-02-28T19:53:10;0.68;;;0.30;;
39050;SDS011;24805;55.852;37.644;2023-02-28T19:58:12;1.63;;;0.20;;
39050;SDS011;24805;55.852;37.644;2023-02-28T20:03:15;2.15;;;0.50;;
39050;SDS011;24805;55.852;37.644;2023-02-28T20:08:19;2.53;;;0.52;;
39050;SDS011;24805;55.852;37.644;2023-02-28T20:13:21;3.85;;;0.30;;
39050;SDS011;24805;55.852;37.644;2023-02-28T20:18:28;3.08;;;0.40;;
39050;SDS011;24805;55.852;37.644;2023-02-28T20:23:30;1.67;;;0.38;;
39050;SDS011;24805;55.852;37.644;2023-02-28T20:28:33;1.45;;;0.20;;
39050;SDS011;24805;55.852;37.644;2023-02-28T20:33:35;3.60;;;0.20;;
39050;SDS011;24805;55.852;37.644;2023-02-28T20:38:37;3.83;;;1.10;;
39050;SDS011;24805;55.852;37.644;2023-02-28T20:43:39;1.63;;;0.20;;
39050;SDS011;24805;55.852;37.644;2023-02-28T20:48:42;2.10;;;0.20;;
39050;SDS011;24805;55.852;37.644;2023-02-28T20:53:44;1.80;;;0.57;;
39050;SDS011;24805;55.852;37.644;2023-02-28T20:58:46;1.35;;;0.47;;
39050;SDS011;24805;55.852;37.644;2023-02-28T21:03:56;1.85;;;0.28;;
39050;SDS011;24805;55.852;37.644;2023-02-28T21:09:02;2.37;;;0.27;;
39050;SDS011;24805;55.852;37.644;2023-02-28T21:14:07;4.10;;;1.52;;
39050;SDS011;24805;55.852;37.644;2023-02-28T21:19:14;1.65;;;0.30;;
39050;SDS011;24805;55.852;37.644;2023-02-28T21:24:18;0.70;;;0.40;;
39050;SDS011;24805;55.852;37.644;2023-02-28T21:29:20;2.38;;;0.30;;
39050;SDS011;24805;55.852;37.644;2023-02-28T21:34:23;3.22;;;0.70;;
39050;SDS011;24805;55.852;37.644;2023-02-28T21:39:27;2.78;;;0.40;;
39050;SDS011;24805;55.852;37.644;2023-02-28T21:44:31;1.35;;;0.30;;
39050;SDS011;24805;55.852;37.644;2023-02-28T21:49:35;5.25;;;2.47;;
39050;SDS011;24805;55.852;37.644;2023-02-28T21:54:39;1.17;;;0.30;;
39050;SDS011;24805;55.852;37.644;2023-02-28T21:59:41;1.50;;;0.17;;
39050;SDS011;24805;55.852;37.644;2023-02-28T22:04:44;3.53;;;1.75;;
39050;SDS011;24805;55.852;37.644;2023-02-28T22:09:46;1.05;;;0.20;;
39050;SDS011;24805;55.852;37.644;2023-02-28T22:14:48;2.47;;;0.45;;
39050;SDS011;24805;55.852;37.644;2023-02-28T22:19:50;3.05;;;0.38;;
39050;SDS011;24805;55.852;37.644;2023-02-28T22:24:53;2.08;;;0.50;;
39050;SDS011;24805;55.852;37.644;2023-02-28T22:29:55;5.07;;;0.88;;
39050;SDS011;24805;55.852;37.644;2023-02-28T22:34:58;1.88;;;0.30;;
39050;SDS011;24805;55.852;37.644;2023-02-28T22:40:00;2.10;;;0.30;;
39050;SDS011;24805;55.852;37.644;2023-02-28T22:45:03;2.05;;;0.60;;
39050;SDS011;24805;55.852;37.644;2023-02-28T22:50:06;3.35;;;0.70;;
39050;SDS011;24805;55.852;37.644;2023-02-28T22:55:08;3.20;;;0.50;;
39050;SDS011;24805;55.852;37.644;2023-02-28T23:00:11;2.83;;;0.47;;
39050;SDS011;24805;55.852;37.644;2023-02-28T23:05:17;1.08;;;0.30;;
39050;SDS011;24805;55.852;37.644;2023-02-28T23:10:19;2.97;;;0.68;;
39050;SDS011;24805;55.852;37.644;2023-02-28T23:15:21;3.45;;;0.75;;
39050;SDS011;24805;55.852;37.644;2023-02-28T23:20:24;4.28;;;0.50;;
39050;SDS011;24805;55.852;37.644;2023-02-28T23:25:26;1.88;;;0.30;;
39050;SDS011;24805;55.852;37.644;2023-02-28T23:30:28;2.72;;;1.00;;
39050;SDS011;24805;55.852;37.644;2023-02-28T23:35:31;3.55;;;0.28;;
39050;SDS011;24805;55.852;37.644;2023-02-28T23:40:35;1.58;;;0.40;;
39050;SDS011;24805;55.852;37.644;2023-02-28T23:45:37;2.70;;;0.40;;
39050;SDS011;24805;55.852;37.644;2023-02-28T23:50:40;2.25;;;0.30;;
39050;SDS011;24805;55.852;37.644;2023-02-28T23:55:45;2.03;;;0.35;;
